• Join FlightAware (Why Join?)
  • Login
  • US Flag 
06:27PM EDT


 

Airport Tracker/Info


-or-


 

Live Flight TrackerFlight Track Log ✈ UAL5829 ✈ 21-Apr-2013 ✈ KORD - CYWG

Flight Track Log - Related Links

Times and Time Zones

All times are in EDT time to prevent confusion due to time zone crossing. See the UAL5829 flight status page for this flight to view local times or setup timezone preferences in your user account.

Time Position Orientation Groundspeed Altitude Reporting Facility
EDT Latitude Longitude Course Direction KTS MPH feet Rate Location/Type
07:20PM 41.9667 -87.8667 90° East 163 188 2,100  Level Chicago TRACON
07:21PM 41.9667 -87.8000 90° East 207 238 4,200 1,500 Climbing Chicago TRACON
07:22PM 41.9667 -87.7167 90° East 254 292 5,000 900 Climbing Chicago TRACON
07:23PM 41.9500 -87.6167 103° East 273 314 6,000 1,680 Climbing Chicago TRACON
07:25PM 42.0619 -87.6822 337° Northwest 270 311 10,900 1,860 Climbing Chicago Center
07:26PM 42.1172 -87.7572 315° West 302 348 12,700 1,680 Climbing Chicago Center
07:27PM 42.2047 -87.7578 360° North 318 366 14,400 1,200 Climbing Chicago Center
07:28PM 42.2975 -87.7594 359° North 333 383 15,200 720 Climbing Chicago Center
07:29PM 42.4119 -87.7631 359° North 367 422 16,000 840 Climbing Chicago Center
07:30PM 42.5200 -87.7661 359° North 385 443 17,000 900 Climbing Chicago Center
07:31PM 42.6097 -87.8422 328° Northwest 378 435 17,900 1,020 Climbing Chicago Center
07:32PM 42.6975 -87.9175 328° Northwest 372 428 19,200 1,080 Climbing Chicago Center
07:33PM 42.7856 -87.9953 327° Northwest 376 433 20,200 1,260 Climbing Chicago Center
07:34PM 42.8911 -88.0875 327° Northwest 384 442 21,900 1,680 Climbing Chicago Center
07:35PM 42.9778 -88.1617 328° Northwest 372 428 23,700 1,320 Climbing Chicago Center
07:36PM 43.0622 -88.2372 327° Northwest 364 419 24,700 960 Climbing Chicago Center
07:37PM 43.1486 -88.3147 327° Northwest 368 423 25,700 960 Climbing Chicago Center
07:38PM 43.2322 -88.3981 324° Northwest 369 425 26,800 1,200 Climbing Chicago Center
07:40PM 43.3281 -88.4928 324° Northwest 362 417 28,200 1,140 Climbing Chicago Center
07:41PM 43.4022 -88.5661 324° Northwest 360 414 29,200 1,020 Climbing Chicago Center
07:42PM 43.4942 -88.6581 324° Northwest 358 412 30,400 840 Climbing Chicago Center
07:43PM 43.5769 -88.7406 324° Northwest 363 418 31,000 240 Climbing Chicago Center
07:44PM 43.6647 -88.8292 324° Northwest 381 438 31,000  Level Chicago Center
07:44PM 43.6947 -88.8581 325° Northwest 385 443 31,000 360 Level Minneapolis Center
07:45PM 43.7575 -88.9214 324° Northwest 406 467 31,400 840 Climbing Chicago Center
07:45PM 43.7881 -88.9514 325° Northwest 407 468 31,900 1,440 Climbing Minneapolis Center
07:46PM 43.8775 -89.0422 324° Northwest 400 460 33,400 1,560 Climbing Minneapolis Center
07:47PM 43.9761 -89.1439 323° Northwest 380 437 35,200 1,260 Climbing Minneapolis Center
07:48PM 44.0589 -89.2264 324° Northwest 368 423 36,000 360 Climbing Minneapolis Center
07:49PM 44.1431 -89.3139 323° Northwest 377 434 36,000  Level Minneapolis Center
07:50PM 44.2342 -89.4064 324° Northwest 400 460 36,000  Level Minneapolis Center
07:51PM 44.3278 -89.5025 324° Northwest 415 478 36,000  Level Minneapolis Center
07:52PM 44.4242 -89.6014 324° Northwest 427 491 36,000  Level Minneapolis Center
07:53PM 44.5186 -89.7014 323° Northwest 426 490 36,000  Level Minneapolis Center
07:54PM 44.6153 -89.8000 324° Northwest 428 493 36,000  Level Minneapolis Center
07:55PM 44.7267 -89.9183 323° Northwest 430 495 36,000  Level Minneapolis Center
07:56PM 44.8214 -90.0172 323° Northwest 424 488 36,000  Level Minneapolis Center
07:57PM 44.9128 -90.1133 323° Northwest 418 481 36,000  Level Minneapolis Center
07:58PM 45.0053 -90.2119 323° Northwest 416 479 36,000  Level Minneapolis Center
07:59PM 45.0986 -90.3119 323° Northwest 419 482 36,000  Level Minneapolis Center
08:00PM 45.1939 -90.4128 323° Northwest 424 488 36,000  Level Minneapolis Center
08:01PM 45.2892 -90.5158 323° Northwest 428 493 36,000  Level Minneapolis Center
08:02PM 45.3822 -90.6164 323° Northwest 422 486 36,000  Level Minneapolis Center
08:04PM 45.4922 -90.7356 323° Northwest 415 478 36,000  Level Minneapolis Center
08:05PM 45.5836 -90.8347 323° Northwest 413 475 36,000  Level Minneapolis Center
08:06PM 45.6775 -90.9378 323° Northwest 421 484 36,000  Level Minneapolis Center
08:07PM 45.7708 -91.0381 323° Northwest 420 483 36,000  Level Minneapolis Center
08:08PM 45.8619 -91.1381 323° Northwest 414 476 36,000  Level Minneapolis Center
08:09PM 45.9522 -91.2400 322° Northwest 413 475 36,000  Level Minneapolis Center
08:10PM 46.0431 -91.3425 322° Northwest 413 475 36,000  Level Minneapolis Center
08:11PM 46.1361 -91.4461 322° Northwest 418 481 36,000  Level Minneapolis Center
08:12PM 46.2303 -91.5503 323° Northwest 422 486 36,000  Level Minneapolis Center
08:13PM 46.3367 -91.6689 322° Northwest 425 489 36,000  Level Minneapolis Center
08:14PM 46.4281 -91.7742 322° Northwest 423 487 36,000  Level Minneapolis Center
08:15PM 46.5228 -91.8792 323° Northwest 427 491 36,000  Level Minneapolis Center
08:16PM 46.6158 -91.9878 321° Northwest 430 495 36,000  Level Minneapolis Center
08:17PM 46.7089 -92.0967 321° Northwest 431 496 36,000  Level Minneapolis Center
08:18PM 46.8031 -92.2047 322° Northwest 431 496 36,000  Level Minneapolis Center
08:19PM 46.8936 -92.3167 320° Northwest 430 495 36,000  Level Minneapolis Center
08:20PM 46.9847 -92.4294 320° Northwest 430 495 36,000  Level Minneapolis Center
08:21PM 47.0903 -92.5589 320° Northwest 420 483 36,000  Level Minneapolis Center
08:22PM 47.1789 -92.6694 320° Northwest 419 482 36,000  Level Minneapolis Center
08:23PM 47.2678 -92.7797 320° Northwest 420 483 36,000  Level Minneapolis Center
08:24PM 47.3572 -92.8922 320° Northwest 424 488 36,000  Level Minneapolis Center
08:25PM 47.4453 -93.0056 319° Northwest 428 493 36,000  Level Minneapolis Center
08:26PM 47.5297 -93.1131 319° Northwest 417 480 36,000  Level Minneapolis Center
08:27PM 47.6317 -93.2408 320° Northwest 408 470 36,000  Level Minneapolis Center
08:28PM 47.7189 -93.3528 319° Northwest 415 478 36,000  Level Minneapolis Center
08:29PM 47.8075 -93.4678 319° Northwest 422 486 36,000  Level Minneapolis Center
08:30PM 47.8967 -93.5842 319° Northwest 427 491 36,000  Level Minneapolis Center
08:31PM 47.9833 -93.6958 319° Northwest 419 482 36,000  Level Minneapolis Center
08:32PM 48.0692 -93.8078 319° Northwest 413 475 36,000  Level Minneapolis Center
08:33PM 48.1544 -93.9214 318° Northwest 412 474 36,000  Level Minneapolis Center
08:34PM 48.2433 -94.0392 319° Northwest 422 486 36,000  Level Minneapolis Center
08:35PM 48.3494 -94.1772 319° Northwest 423 487 36,000  Level Minneapolis Center
08:36PM 48.4347 -94.2931 318° Northwest 417 480 36,000  Level Minneapolis Center
08:37PM 48.5036 -94.3847 319° Northwest 415 478 36,000  Level Minneapolis Center
08:38PM 48.6067 -94.5211 319° Northwest 413 475 36,000  Level Minneapolis Center
08:39PM 48.6894 -94.6347 318° Northwest 411 473 36,000  Level Minneapolis Center
08:41PM 48.8333 -94.8333 318° Northwest 410 472 36,000 -180 Level Winnipeg Center
08:42PM 48.9167 -94.9500 317° Northwest 420 483 35,500 -1,320 Descending Winnipeg Center
08:43PM 49.0167 -95.0833 319° Northwest 410 472 33,400 -2,100 Descending Winnipeg Center
08:44PM 49.1000 -95.2000 318° Northwest 410 472 31,300 -2,220 Descending Winnipeg Center
08:45PM 49.1667 -95.3500 304° West 410 472 29,000 -2,100 Descending Winnipeg Center
08:46PM 49.2333 -95.4833 307° West 410 472 27,100 -1,980 Descending Winnipeg Center
08:47PM 49.3000 -95.6000 311° West 410 472 25,100 -2,100 Descending Winnipeg Center
08:48PM 49.3667 -95.7667 302° West 410 472 23,000 -2,040 Descending Winnipeg Center
08:49PM 49.4167 -95.8833 303° West 390 449 21,100 -1,920 Descending Winnipeg Center
08:50PM 49.4833 -96.0167 308° West 380 437 19,200 -2,040 Descending Winnipeg Center
08:51PM 49.5667 -96.1667 311° West 370 426 17,100 -1,980 Descending Winnipeg Center
08:52PM 49.6167 -96.2667 308° West 350 403 15,300 -1,860 Descending Winnipeg Center
08:53PM 49.6667 -96.4000 300° West 340 391 13,400 -1,920 Descending Winnipeg Center
08:54PM 49.7167 -96.5000 308° West 310 357 11,500 -1,800 Descending Winnipeg Center
08:55PM 49.7333 -96.6333 281° West 250 288 9,800 -1,800 Descending Winnipeg Center
08:56PM 49.7167 -96.7000 249° West 240 276 8,000 -1,680 Descending Winnipeg Center
08:57PM 49.7167 -96.8167 270° West 230 265 6,500 -1,500 Descending Winnipeg Center
08:58PM 49.7167 -96.9167 270° West 240 276 5,000 -1,260 Descending Winnipeg Center
08:59PM 49.7333 -97.0167 284° West 210 242 4,000 -1,020 Descending Winnipeg Center
09:00PM 49.7667 -97.0667 316° Northwest 140 161 3,000 -540 Descending Winnipeg Center
09:01PM 49.7833 -97.1000 308° West 110 127 3,000 -180 Level Winnipeg Center
09:02PM 49.8167 -97.1167 342° North 110 127 2,700 -540 Descending Winnipeg Center
09:03PM 49.8333 -97.1500 308° West 110 127 2,000 -660 Descending Winnipeg Center
09:04PM 49.8667 -97.2000 316° Northwest 110 127 1,400 -660 Descending Winnipeg Center
09:05PM 49.8833 -97.2333 308° West 120 138 700 -720 Descending Winnipeg Center